createdAt,value
2023-09-18T00:18:45.768Z,11.80
2023-09-18T00:22:26.359Z,11.00
2023-09-18T00:26:08.021Z,14.30
2023-09-18T00:30:13.778Z,11.40
2023-09-18T00:33:51.424Z,11.80
2023-09-18T00:43:12.552Z,15.10
2023-09-18T00:46:51.175Z,10.80
2023-09-18T00:50:25.792Z,11.30
2023-09-18T00:54:08.314Z,16.40
2023-09-18T00:57:48.203Z,13.90
2023-09-18T01:01:45.940Z,12.70
2023-09-18T01:05:04.138Z,14.20
2023-09-18T01:08:43.796Z,16.40
2023-09-18T01:18:11.006Z,14.70
2023-09-18T01:21:46.519Z,16.00
2023-09-18T01:25:24.459Z,15.30
2023-09-18T01:29:02.121Z,19.60
2023-09-18T01:32:47.882Z,15.30
2023-09-18T01:36:19.271Z,15.60
2023-09-18T01:40:00.591Z,19.00
2023-09-18T01:43:38.994Z,15.70
2023-09-18T01:47:19.791Z,16.70
2023-09-18T01:50:59.477Z,18.40
2023-09-18T01:54:39.512Z,16.60
2023-09-18T01:58:44.120Z,16.10
2023-09-18T02:02:40.249Z,18.90
2023-09-18T02:06:25.939Z,17.00
2023-09-18T02:10:04.971Z,15.70
2023-09-18T02:13:49.533Z,17.20
2023-09-18T02:17:27.272Z,16.40
2023-09-18T02:21:05.106Z,18.10
2023-09-18T02:24:42.795Z,21.50
2023-09-18T02:28:20.499Z,22.20
2023-09-18T02:31:58.413Z,19.20
2023-09-18T02:35:36.227Z,22.50
2023-09-18T02:39:16.084Z,18.90
2023-09-18T02:42:53.993Z,22.30
2023-09-18T02:46:34.853Z,18.70
2023-09-18T02:50:12.984Z,22.90
2023-09-18T02:54:07.947Z,20.20
2023-09-18T02:56:34.472Z,25.30
2023-09-18T02:59:12.294Z,28.70
2023-09-18T03:01:38.887Z,25.00
2023-09-18T03:04:05.910Z,25.30
2023-09-18T03:09:10.080Z,18.10
2023-09-18T03:12:29.288Z,18.60
2023-09-18T03:16:11.816Z,17.60
2023-09-18T03:19:50.413Z,18.90
2023-09-18T03:23:33.781Z,18.70
2023-09-18T03:27:29.191Z,17.80
2023-09-18T03:30:45.447Z,18.20
2023-09-18T03:34:28.182Z,17.90
2023-09-18T03:39:26.490Z,19.10
2023-09-18T03:42:06.482Z,18.70
2023-09-18T03:45:44.455Z,18.90
2023-09-18T03:50:13.038Z,19.10
2023-09-18T03:54:20.181Z,19.70
2023-09-18T04:13:45.730Z,17.40
2023-09-18T04:16:28.808Z,18.20
2023-09-18T04:20:26.089Z,16.70
2023-09-18T04:23:56.726Z,17.40
2023-09-18T04:27:22.019Z,17.20
2023-09-18T04:30:59.663Z,17.60
2023-09-18T04:35:06.585Z,18.30
2023-09-18T04:38:46.309Z,18.80
2023-09-18T04:42:27.290Z,19.40
2023-09-18T04:46:07.384Z,20.50
2023-09-18T04:49:48.852Z,18.20
2023-09-18T04:53:25.473Z,20.70
2023-09-18T04:57:25.146Z,20.30
2023-09-18T05:01:02.429Z,20.40
2023-09-18T05:04:21.632Z,18.80
2023-09-18T05:07:58.766Z,19.70
2023-09-18T05:17:46.998Z,19.30
2023-09-18T05:28:04.246Z,18.40
2023-09-18T05:32:40.910Z,19.30
2023-09-18T05:36:18.730Z,18.30
2023-09-18T05:39:56.374Z,19.00
2023-09-18T05:44:08.228Z,19.60
2023-09-18T05:48:08.613Z,20.00
2023-09-18T05:51:25.686Z,19.70
2023-09-18T05:53:54.152Z,22.60
2023-09-18T05:56:28.752Z,23.20
2023-09-18T06:00:04.899Z,22.80
2023-09-18T06:02:35.219Z,21.50
2023-09-18T06:05:04.042Z,21.80
2023-09-18T06:08:06.272Z,18.40
2023-09-18T06:11:21.235Z,20.50
2023-09-18T06:15:11.236Z,19.50
2023-09-18T06:18:40.706Z,19.30
2023-09-18T06:22:41.357Z,19.80
2023-09-18T06:25:57.430Z,19.80
2023-09-18T06:30:05.392Z,19.40
2023-09-18T06:33:43.420Z,19.30
2023-09-18T06:38:16.641Z,19.30
2023-09-18T06:41:54.471Z,19.00
2023-09-18T06:45:34.787Z,19.50
2023-09-18T06:49:35.037Z,19.90
2023-09-18T06:52:52.496Z,19.10
2023-09-18T06:56:30.946Z,18.10
2023-09-18T07:00:45.948Z,17.30
2023-09-18T07:04:14.174Z,17.80
2023-09-18T07:07:52.060Z,18.20
2023-09-18T07:12:24.013Z,17.50
2023-09-18T07:16:05.206Z,16.70
2023-09-18T07:19:40.434Z,17.30
2023-09-18T07:23:21.583Z,17.10
2023-09-18T07:26:56.136Z,15.70
2023-09-18T07:30:36.487Z,15.30
2023-09-18T07:45:18.824Z,14.00
2023-09-18T07:47:58.121Z,13.60
2023-09-18T07:51:45.375Z,15.40
2023-09-18T07:55:20.870Z,12.20
2023-09-18T07:59:15.129Z,12.10
2023-09-18T08:02:42.425Z,11.70
2023-09-18T15:11:18.659Z,5.40
2023-09-18T15:26:14.108Z,6.40
2023-09-18T15:45:13.539Z,7.30
2023-09-18T15:47:58.598Z,8.00
2023-09-18T16:15:47.122Z,8.80
2023-09-18T16:18:41.092Z,9.80
2023-09-18T16:22:16.821Z,9.60
2023-09-18T16:26:39.738Z,9.60
2023-09-18T16:30:18.070Z,9.40
2023-09-18T16:33:56.093Z,10.20
2023-09-18T16:37:47.176Z,9.40
2023-09-18T16:41:14.065Z,9.90
2023-09-18T16:45:20.922Z,10.10
2023-09-18T16:48:35.561Z,10.60
2023-09-18T16:52:34.097Z,9.90
2023-09-18T16:56:13.455Z,9.10
2023-09-18T17:10:19.841Z,9.20
2023-09-18T17:13:30.511Z,10.40
2023-09-18T17:16:43.579Z,9.90
2023-09-18T17:30:54.550Z,10.10
2023-09-18T17:35:04.693Z,14.60
2023-09-18T17:38:50.242Z,10.80
2023-09-18T17:42:20.260Z,10.60
2023-09-18T17:45:58.157Z,11.00
2023-09-18T17:49:40.754Z,11.70
2023-09-18T17:53:13.691Z,16.60
2023-09-18T17:56:56.456Z,13.70
2023-09-18T18:00:48.374Z,11.90
2023-09-18T18:05:01.714Z,12.70
2023-09-18T18:08:42.834Z,12.00
2023-09-18T18:12:20.013Z,11.70
2023-09-18T18:14:54.942Z,13.20
2023-09-18T18:17:22.878Z,12.80
2023-09-18T18:19:51.321Z,13.20
2023-09-18T18:22:19.467Z,12.20
2023-09-18T18:26:11.542Z,13.90
2023-09-18T18:29:58.182Z,12.10
2023-09-18T18:33:41.991Z,11.00
2023-09-18T18:36:10.646Z,11.60
2023-09-18T18:38:38.695Z,11.60
2023-09-18T18:41:06.735Z,11.70
2023-09-18T18:55:41.884Z,10.80
2023-09-18T18:59:19.786Z,9.10
2023-09-18T19:02:58.014Z,9.40
2023-09-18T19:06:36.801Z,9.90
2023-09-18T19:09:06.365Z,11.00
2023-09-18T19:11:34.666Z,10.60
2023-09-18T19:14:02.721Z,10.20
2023-09-18T19:16:31.364Z,10.10
2023-09-18T19:20:26.904Z,9.00
2023-09-18T19:24:05.068Z,9.30
2023-09-18T19:27:49.059Z,13.20
2023-09-18T19:30:18.864Z,10.10
2023-09-18T19:32:47.395Z,10.80
2023-09-18T19:35:15.478Z,11.20
2023-09-18T19:37:43.603Z,10.30
2023-09-18T19:40:14.931Z,10.60
2023-09-18T19:44:25.523Z,9.50
2023-09-18T19:46:52.432Z,9.60
2023-09-18T19:49:19.026Z,10.40
2023-09-18T19:51:45.627Z,9.80
2023-09-18T19:54:12.163Z,10.00
2023-09-18T19:56:38.902Z,10.10
2023-09-18T19:59:06.109Z,10.10
2023-09-18T20:01:34.418Z,10.30
2023-09-18T20:04:01.176Z,9.90
2023-09-18T20:06:31.523Z,9.80
2023-09-18T20:08:58.182Z,9.90
2023-09-18T20:11:46.734Z,10.40
2023-09-18T20:14:28.952Z,9.70
2023-09-18T20:17:00.024Z,10.20
2023-09-18T20:19:28.202Z,10.60
2023-09-18T20:21:56.547Z,10.50
2023-09-18T20:26:50.705Z,10.20
2023-09-18T20:29:20.175Z,10.70
2023-09-18T20:31:48.773Z,10.10
2023-09-18T20:34:16.784Z,10.30
2023-09-18T20:37:10.506Z,10.50
2023-09-18T20:42:15.444Z,10.10
2023-09-18T20:45:53.908Z,10.10
2023-09-18T20:49:35.732Z,10.00
2023-09-18T20:53:13.401Z,10.50
2023-09-18T20:57:13.365Z,10.00
2023-09-18T21:00:32.607Z,11.60
2023-09-18T21:03:00.562Z,10.70
2023-09-18T21:05:28.812Z,10.80
2023-09-18T21:07:57.406Z,11.30
2023-09-18T21:10:33.215Z,10.90
2023-09-18T21:15:39.651Z,13.10
2023-09-18T21:18:08.357Z,10.70
2023-09-18T21:20:36.673Z,10.60
2023-09-18T21:23:05.103Z,10.80
2023-09-18T21:25:34.765Z,12.20
2023-09-18T21:28:05.182Z,10.80
2023-09-18T21:30:33.035Z,10.70
2023-09-18T21:33:01.019Z,11.10
2023-09-18T21:35:29.220Z,10.30
2023-09-18T21:38:01.248Z,12.60
2023-09-18T21:40:34.257Z,11.30
2023-09-18T21:43:02.914Z,11.30
2023-09-18T21:45:30.857Z,10.80
2023-09-18T21:47:58.864Z,11.50
2023-09-18T21:50:28.423Z,11.30
2023-09-18T21:52:56.481Z,11.80
2023-09-18T21:55:27.414Z,11.10
2023-09-18T21:57:55.162Z,11.50
2023-09-18T22:00:29.558Z,12.10
2023-09-18T22:02:57.878Z,12.30
2023-09-18T22:05:27.426Z,11.60
2023-09-18T22:07:55.286Z,11.80
2023-09-18T22:10:23.101Z,11.30
2023-09-18T22:15:24.865Z,11.20
2023-09-18T22:17:51.640Z,12.20
2023-09-18T22:20:19.061Z,13.40
2023-09-18T22:22:49.678Z,12.00
2023-09-18T22:25:16.407Z,11.80
2023-09-18T22:27:43.110Z,12.20
2023-09-18T22:30:12.404Z,13.10
2023-09-18T22:36:58.730Z,14.20
2023-09-18T22:39:35.138Z,12.70
2023-09-18T22:42:02.746Z,12.20
2023-09-18T22:45:07.590Z,12.60
2023-09-18T22:48:14.177Z,12.50
2023-09-18T22:51:30.884Z,12.80
2023-09-18T22:54:01.647Z,12.60
2023-09-18T22:56:31.028Z,12.20
2023-09-18T23:00:14.501Z,12.90
2023-09-18T23:02:45.078Z,12.70
2023-09-18T23:05:24.372Z,12.10
2023-09-18T23:07:56.308Z,13.20
2023-09-18T23:10:23.549Z,12.80
2023-09-18T23:12:54.304Z,12.90
2023-09-18T23:15:21.933Z,12.80
2023-09-18T23:21:12.350Z,12.60
2023-09-18T23:23:39.015Z,12.20
2023-09-18T23:26:06.362Z,12.30
2023-09-18T23:28:34.584Z,12.80
2023-09-18T23:31:01.162Z,12.80
2023-09-18T23:33:28.447Z,12.70
2023-09-18T23:35:56.491Z,12.60
2023-09-18T23:40:59.172Z,11.70
2023-09-18T23:44:38.699Z,12.40
2023-09-18T23:48:19.852Z,11.20
2023-09-18T23:50:50.059Z,12.60
2023-09-18T23:53:19.673Z,12.70
2023-09-18T23:55:50.954Z,13.00
2023-09-18T23:58:21.250Z,13.10
